Time;durP1;ratioP1;P1;durP2;ratioP2;P2;SDS_P1;SDS_P2;PMS_P1;PMS_P2;Temp;Humidity;BMP_temperature;BMP_pressure;BME280_temperature;BME280_humidity;BME280_pressure;Samples;Min_cycle;Max_cycle;Signal;HPM_P1;HPM_P2
2022/04/22 00:01:24;;;;;;;;;;;;;;;7.88;56.49;95281.38;5114858;28;19961;-71
2022/04/22 00:03:50;;;;;;;;;;;;;;;7.83;57.10;95278.69;5114131;28;20021;-73
2022/04/22 00:06:16;;;;;;;;;;;;;;;7.78;57.00;95281.16;5115293;28;19957;-72
2022/04/22 00:08:42;;;;;;;;;;;;;;;7.70;56.79;95273.69;5115342;28;20407;-72
2022/04/22 00:13:54;;;;;;;;;;;;;;;7.46;57.90;95275.50;5115221;28;19959;-73
2022/04/22 00:16:21;;;;;;;;;;;;;;;7.41;58.05;95272.78;5115084;28;19954;-73
2022/04/22 00:18:47;;;;;;;;;;;;;;;7.36;57.95;95267.44;5115032;28;19975;-72
2022/04/22 00:21:13;;;;;;;;;;;;;;;7.34;57.27;95259.84;5115000;28;19947;-72
2022/04/22 00:23:39;;;;;;;;;;;;;;;7.29;58.34;95259.75;5114811;28;19949;-73
2022/04/22 00:26:05;;;;;;;;;;;;;;;7.25;59.00;95262.00;5115640;28;20489;-72
2022/04/22 00:28:31;;;;;;;;;;;;;;;7.22;59.47;95259.03;5115375;28;20487;-72
2022/04/22 00:30:56;;;;;;;;;;;;;;;7.19;59.01;95252.47;5114969;28;19998;-71
2022/04/22 00:33:22;;;;;;;;;;;;;;;7.18;59.13;95255.28;5115186;28;20040;-71
2022/04/22 00:35:48;;;;;;;;;;;;;;;7.15;58.96;95251.34;5114715;28;20364;-71
2022/04/22 00:38:15;;;;;;;;;;;;;;;7.14;58.37;95259.38;5114709;28;19942;-72
2022/04/22 00:40:41;;;;;;;;;;;;;;;7.13;58.56;95258.59;5114722;28;19954;-71
2022/04/22 00:43:24;;;;;;;;;;;;;;;7.13;59.03;95261.19;5096493;28;20039;-70
2022/04/22 00:45:51;;;;;;;;;;;;;;;7.12;58.85;95264.84;5114553;28;19947;-71
2022/04/22 00:48:17;;;;;;;;;;;;;;;7.10;59.04;95259.03;5096571;28;19947;-71
2022/04/22 00:50:43;;;;;;;;;;;;;;;7.07;58.62;95255.06;5114574;28;19971;-71
2022/04/22 00:53:09;;;;;;;;;;;;;;;7.02;58.92;95248.94;5114416;28;19954;-71
2022/04/22 00:55:37;;;;;;;;;;;;;;;6.99;59.31;95244.97;5114892;28;19952;-72
2022/04/22 00:58:03;;;;;;;;;;;;;;;6.95;59.41;95235.22;5114751;28;19944;-73
2022/04/22 01:00:29;;;;;;;;;;;;;;;6.86;60.29;95242.56;5114140;28;19972;-73
2022/04/22 01:02:55;;;;;;;;;;;;;;;6.75;60.42;95233.72;5114069;28;20429;-72
2022/04/22 01:10:52;;;;;;;;;;;;;;;6.60;60.36;95228.13;5114313;28;19953;-72
2022/04/22 01:13:19;;;;;;;;;;;;;;;6.58;59.86;95224.94;5114112;28;20028;-71
2022/04/22 01:15:50;;;;;;;;;;;;;;;6.52;61.26;95225.84;5113942;28;19960;-71
2022/04/22 01:18:17;;;;;;;;;;;;;;;6.47;59.64;95216.09;5114077;28;20362;-71
2022/04/22 01:20:43;;;;;;;;;;;;;;;6.38;61.67;95212.97;5114034;28;19976;-71
2022/04/22 01:23:08;;;;;;;;;;;;;;;6.27;62.21;95209.31;5113973;28;19948;-71
2022/04/22 01:25:34;;;;;;;;;;;;;;;6.18;60.44;95199.47;5113648;28;19987;-72
2022/04/22 01:28:01;;;;;;;;;;;;;;;6.09;63.35;95201.59;5113885;28;19954;-72
2022/04/22 01:30:27;;;;;;;;;;;;;;;6.04;61.83;95183.22;5113951;28;19964;-71
2022/04/22 01:32:56;;;;;;;;;;;;;;;5.99;63.36;95194.28;5113705;28;20399;-72
2022/04/22 01:35:22;;;;;;;;;;;;;;;6.00;62.80;95193.25;5114256;28;19955;-72
2022/04/22 01:37:48;;;;;;;;;;;;;;;5.98;63.99;95195.28;5114129;28;19977;-74
2022/04/22 01:40:15;;;;;;;;;;;;;;;5.96;63.43;95192.09;5113596;28;19969;-73
2022/04/22 01:42:41;;;;;;;;;;;;;;;5.93;64.78;95189.13;5112868;28;19949;-71
2022/04/22 01:45:07;;;;;;;;;;;;;;;5.89;64.06;95188.78;5113963;28;20021;-72
2022/04/22 01:47:34;;;;;;;;;;;;;;;5.86;63.27;95184.81;5113805;28;19954;-72
2022/04/22 01:50:00;;;;;;;;;;;;;;;5.85;65.72;95187.63;5113976;28;19948;-73
2022/04/22 01:52:26;;;;;;;;;;;;;;;5.82;64.12;95170.66;5095445;28;19952;-72
2022/04/22 01:54:53;;;;;;;;;;;;;;;5.80;63.96;95169.28;5113899;28;20520;-72
2022/04/22 01:57:20;;;;;;;;;;;;;;;5.73;63.84;95164.13;5113795;28;19949;-74
2022/04/22 01:59:46;;;;;;;;;;;;;;;5.67;63.85;95163.22;5113796;28;20318;-72
2022/04/22 02:02:13;;;;;;;;;;;;;;;5.64;63.87;95158.44;5113540;28;19957;-72
2022/04/22 02:04:39;;;;;;;;;;;;;;;5.61;65.55;95163.31;5113811;28;20052;-74
2022/04/22 02:07:05;;;;;;;;;;;;;;;5.52;65.09;95160.19;5113645;28;20063;-73
2022/04/22 02:09:31;;;;;;;;;;;;;;;5.49;64.98;95166.63;5113558;28;20314;-73
2022/04/22 02:11:57;;;;;;;;;;;;;;;5.45;65.44;95155.06;5113563;28;19950;-78
2022/04/22 02:14:24;;;;;;;;;;;;;;;5.45;64.10;95152.47;5113453;28;20305;-73
2022/04/22 02:16:51;;;;;;;;;;;;;;;5.44;65.58;95155.31;5113413;28;19946;-73
2022/04/22 02:19:17;;;;;;;;;;;;;;;5.42;64.14;95147.72;5113974;28;19971;-74
2022/04/22 02:21:43;;;;;;;;;;;;;;;5.40;66.22;95148.94;5112739;28;19956;-74
2022/04/22 02:24:10;;;;;;;;;;;;;;;5.36;65.54;95143.38;5113573;28;19958;-73
2022/04/22 02:29:20;;;;;;;;;;;;;;;5.35;66.31;95135.78;5113558;28;19947;-73
2022/04/22 02:31:46;;;;;;;;;;;;;;;5.37;67.84;95129.34;5113921;28;20395;-72
2022/04/22 02:34:12;;;;;;;;;;;;;;;5.40;65.79;95126.34;5095387;28;20373;-73
2022/04/22 02:36:39;;;;;;;;;;;;;;;5.41;67.21;95132.31;5115399;28;19948;-73
2022/04/22 02:39:05;;;;;;;;;;;;;;;5.41;67.64;95134.91;5116935;28;19969;-75
2022/04/22 02:47:26;;;;;;;;;;;;;;;5.45;66.83;95116.06;5116763;28;19955;-72
2022/04/22 02:49:52;;;;;;;;;;;;;;;5.51;67.41;95116.22;5117207;28;20029;-71
2022/04/22 02:52:18;;;;;;;;;;;;;;;5.52;66.88;95110.78;5117118;28;20025;-71
2022/04/22 02:54:44;;;;;;;;;;;;;;;5.52;66.64;95107.41;5116695;28;19988;-71
2022/04/22 02:57:10;;;;;;;;;;;;;;;5.51;67.10;95108.41;5116788;28;19954;-72
2022/04/22 02:59:37;;;;;;;;;;;;;;;5.51;65.88;95098.03;5116788;28;19963;-73
2022/04/22 03:02:04;;;;;;;;;;;;;;;5.49;67.79;95112.03;5116764;28;19951;-72
2022/04/22 03:04:30;;;;;;;;;;;;;;;5.48;67.35;95110.44;5116377;28;19971;-72
2022/04/22 03:06:56;;;;;;;;;;;;;;;5.44;68.83;95105.91;5098723;28;19971;-71
2022/04/22 03:09:22;;;;;;;;;;;;;;;5.41;67.13;95095.94;5116390;28;20378;-72
2022/04/22 03:11:50;;;;;;;;;;;;;;;5.35;66.44;95089.00;5116697;28;19940;-71
2022/04/22 03:14:17;;;;;;;;;;;;;;;5.26;68.27;95099.69;5116392;28;19959;-70
2022/04/22 03:16:43;;;;;;;;;;;;;;;5.21;68.41;95096.16;5116457;28;20338;-72
2022/04/22 03:19:10;;;;;;;;;;;;;;;5.15;67.60;95089.25;5116306;28;19978;-72
2022/04/22 03:21:36;;;;;;;;;;;;;;;5.09;68.82;95093.50;5116608;28;19946;-71
2022/04/22 03:24:02;;;;;;;;;;;;;;;5.05;67.70;95087.94;5116288;28;19957;-72
2022/04/22 03:26:28;;;;;;;;;;;;;;;5.02;68.16;95080.56;5116162;28;20467;-70
2022/04/22 03:28:54;;;;;;;;;;;;;;;4.98;69.25;95089.81;5115938;28;20340;-71
2022/04/22 03:31:20;;;;;;;;;;;;;;;4.95;70.15;95081.66;5116155;28;20410;-70
2022/04/22 03:33:46;;;;;;;;;;;;;;;4.91;69.32;95075.28;5116201;28;20001;-71
2022/04/22 03:36:14;;;;;;;;;;;;;;;4.85;68.98;95075.16;5116597;28;19954;-70
2022/04/22 03:38:40;;;;;;;;;;;;;;;4.81;69.71;95070.63;5116108;28;19942;-70
2022/04/22 03:41:06;;;;;;;;;;;;;;;4.79;68.92;95077.81;5116141;28;20045;-71
2022/04/22 03:43:32;;;;;;;;;;;;;;;4.77;67.57;95065.06;5115912;28;19950;-70
2022/04/22 03:45:58;;;;;;;;;;;;;;;4.75;69.38;95074.84;5115864;28;19957;-70
2022/04/22 03:48:24;;;;;;;;;;;;;;;4.75;67.55;95061.88;5115435;28;19959;-73
2022/04/22 03:50:50;;;;;;;;;;;;;;;4.73;69.35;95068.28;5115722;28;19951;-71
2022/04/22 03:53:16;;;;;;;;;;;;;;;4.74;69.31;95075.06;5115873;28;19951;-72
2022/04/22 03:55:43;;;;;;;;;;;;;;;4.71;69.20;95065.91;5097571;28;20056;-71
2022/04/22 03:58:12;;;;;;;;;;;;;;;4.71;70.75;95057.31;5097306;28;19956;-71
2022/04/22 04:00:39;;;;;;;;;;;;;;;4.68;70.93;95059.34;5115810;28;19969;-71
2022/04/22 04:03:09;;;;;;;;;;;;;;;4.67;71.23;95065.53;5115187;28;19976;-71
2022/04/22 04:05:36;;;;;;;;;;;;;;;4.67;69.90;95056.97;5115385;28;19952;-71
2022/04/22 04:08:02;;;;;;;;;;;;;;;4.65;70.82;95062.34;5115444;28;19965;-71
2022/04/22 04:15:59;;;;;;;;;;;;;;;4.57;71.15;95065.22;5115581;28;19957;-71
2022/04/22 04:18:32;;;;;;;;;;;;;;;4.54;71.09;95070.06;5115272;28;19946;-71
2022/04/22 04:23:44;;;;;;;;;;;;;;;4.48;71.71;95069.13;5115640;28;20418;-71
2022/04/22 04:26:10;;;;;;;;;;;;;;;4.48;72.36;95074.31;5115220;28;19952;-71
2022/04/22 04:28:37;;;;;;;;;;;;;;;4.49;71.97;95070.69;5114747;28;20336;-71
2022/04/22 04:31:03;;;;;;;;;;;;;;;4.49;72.54;95078.47;5096306;28;19947;-71
2022/04/22 04:33:29;;;;;;;;;;;;;;;4.50;72.74;95079.28;5114978;28;19949;-71
2022/04/22 04:35:55;;;;;;;;;;;;;;;4.51;72.83;95073.88;5096717;28;19957;-72
2022/04/22 04:38:22;;;;;;;;;;;;;;;4.51;72.52;95080.88;5115319;28;19949;-72
2022/04/22 04:40:48;;;;;;;;;;;;;;;4.52;72.25;95074.69;5114684;28;19967;-71
2022/04/22 04:43:14;;;;;;;;;;;;;;;4.52;72.15;95072.09;5114804;28;19951;-71
2022/04/22 04:45:41;;;;;;;;;;;;;;;4.53;71.49;95071.06;5114796;28;20323;-70
2022/04/22 04:48:07;;;;;;;;;;;;;;;4.53;72.45;95071.06;5114851;28;20452;-72
2022/04/22 04:50:33;;;;;;;;;;;;;;;4.53;73.06;95077.03;5102930;28;20417;-72
2022/04/22 04:52:59;;;;;;;;;;;;;;;4.53;72.91;95079.63;5114454;28;19993;-71
2022/04/22 04:55:26;;;;;;;;;;;;;;;4.59;73.22;95078.78;5114608;28;19950;-73
2022/04/22 04:58:10;;;;;;;;;;;;;;;4.79;72.83;95072.63;5105143;28;19950;-72
2022/04/22 05:00:36;;;;;;;;;;;;;;;4.99;73.56;95073.19;5113784;28;19965;-71
2022/04/22 05:03:02;;;;;;;;;;;;;;;5.22;72.06;95076.94;5114077;28;19979;-72
2022/04/22 05:05:28;;;;;;;;;;;;;;;5.43;70.79;95062.72;5114485;28;19952;-72
2022/04/22 05:07:57;;;;;;;;;;;;;;;5.63;70.54;95073.66;5114510;28;19956;-71
2022/04/22 05:10:23;;;;;;;;;;;;;;;5.82;69.43;95064.00;5114272;28;20318;-74
2022/04/22 05:12:50;;;;;;;;;;;;;;;6.01;70.82;95062.16;5114380;28;20410;-73
2022/04/22 05:15:17;;;;;;;;;;;;;;;6.19;67.50;95050.84;5114094;28;19955;-74
2022/04/22 05:17:44;;;;;;;;;;;;;;;6.37;67.68;95049.19;5114659;28;20387;-73
2022/04/22 05:20:11;;;;;;;;;;;;;;;6.50;67.57;95048.97;5114292;28;19972;-72
2022/04/22 05:22:37;;;;;;;;;;;;;;;6.66;67.54;95050.91;5114322;28;19946;-71
2022/04/22 05:25:04;;;;;;;;;;;;;;;6.87;67.74;95046.91;5095812;28;20310;-71
2022/04/22 05:27:31;;;;;;;;;;;;;;;7.09;66.67;95041.88;5114286;28;19956;-72
2022/04/22 05:32:47;;;;;;;;;;;;;;;7.51;65.70;95033.81;5113820;28;19968;-72
2022/04/22 05:35:13;;;;;;;;;;;;;;;7.71;65.32;95030.00;5114510;28;20319;-72
2022/04/22 05:37:46;;;;;;;;;;;;;;;7.84;64.88;95032.31;5114262;28;19963;-72
2022/04/22 05:40:13;;;;;;;;;;;;;;;8.00;64.13;95032.56;5101290;28;19962;-73
2022/04/22 05:42:39;;;;;;;;;;;;;;;8.17;63.72;95028.16;5113958;28;19955;-73
2022/04/22 05:45:06;;;;;;;;;;;;;;;8.28;63.20;95018.66;5114057;28;19948;-73
2022/04/22 05:47:32;;;;;;;;;;;;;;;8.43;63.03;95012.91;5114301;28;19952;-73
2022/04/22 05:49:58;;;;;;;;;;;;;;;8.56;62.73;95007.31;5096026;28;19999;-73
2022/04/22 05:52:24;;;;;;;;;;;;;;;8.73;62.50;95012.53;5096173;28;19956;-73
2022/04/22 05:54:50;;;;;;;;;;;;;;;8.88;62.16;95004.91;5113983;28;19951;-74
2022/04/22 05:57:16;;;;;;;;;;;;;;;9.02;61.83;95004.53;5113951;28;19954;-73
2022/04/22 05:59:42;;;;;;;;;;;;;;;9.22;61.55;95006.59;5113645;28;19976;-73
2022/04/22 06:02:07;;;;;;;;;;;;;;;9.38;61.05;94997.09;5113787;28;19952;-73
2022/04/22 06:04:33;;;;;;;;;;;;;;;9.58;60.69;94988.66;5113851;28;19980;-73
2022/04/22 06:06:59;;;;;;;;;;;;;;;9.73;60.11;94994.03;5113769;28;20435;-73
2022/04/22 06:12:10;;;;;;;;;;;;;;;10.13;59.37;94980.50;5117370;28;19957;-73
2022/04/22 06:14:36;;;;;;;;;;;;;;;10.29;58.64;94978.81;5117715;28;19956;-73
2022/04/22 06:17:02;;;;;;;;;;;;;;;10.43;58.25;94967.88;5117889;28;20338;-72
2022/04/22 06:19:27;;;;;;;;;;;;;;;10.58;58.17;94970.59;5117451;28;20035;-73
2022/04/22 06:21:54;;;;;;;;;;;;;;;10.70;57.62;94965.16;5117869;28;19961;-73
2022/04/22 06:24:19;;;;;;;;;;;;;;;10.79;57.48;94958.38;5118085;28;19957;-73
2022/04/22 06:26:45;;;;;;;;;;;;;;;10.84;57.25;94961.03;5117733;28;19993;-73
2022/04/22 06:29:11;;;;;;;;;;;;;;;10.86;56.87;94958.16;5117508;28;20000;-73
2022/04/22 06:31:37;;;;;;;;;;;;;;;11.02;56.84;94951.91;5117605;28;19995;-73
2022/04/22 06:34:03;;;;;;;;;;;;;;;11.20;56.77;94963.78;5117336;28;19962;-73
2022/04/22 06:36:29;;;;;;;;;;;;;;;11.25;55.93;94952.50;5117058;28;19956;-75
2022/04/22 06:38:58;;;;;;;;;;;;;;;11.31;56.47;94957.50;5117159;28;19946;-73
2022/04/22 06:46:54;;;;;;;;;;;;;;;11.44;56.56;94956.22;5117220;28;19954;-74
2022/04/22 06:49:20;;;;;;;;;;;;;;;11.67;56.51;94954.94;5098801;28;19953;-73
2022/04/22 06:51:46;;;;;;;;;;;;;;;11.91;55.40;94946.63;5116947;28;19963;-73
2022/04/22 06:54:12;;;;;;;;;;;;;;;12.10;55.25;94944.25;5117114;28;19955;-73
2022/04/22 06:56:39;;;;;;;;;;;;;;;12.22;54.62;94921.09;5116694;28;19957;-73
2022/04/22 06:59:05;;;;;;;;;;;;;;;12.38;54.51;94920.00;5116480;28;19952;-73
2022/04/22 07:01:31;;;;;;;;;;;;;;;12.59;54.32;94928.63;5116489;28;19961;-73
2022/04/22 07:03:58;;;;;;;;;;;;;;;12.68;53.46;94912.28;5117013;28;20002;-73
2022/04/22 07:06:24;;;;;;;;;;;;;;;12.78;53.40;94917.53;5116468;28;19953;-73
2022/04/22 07:08:50;;;;;;;;;;;;;;;12.87;53.23;94909.84;5116556;28;19951;-73
2022/04/22 07:11:22;;;;;;;;;;;;;;;12.93;53.14;94911.41;5116859;28;19953;-74
2022/04/22 07:13:48;;;;;;;;;;;;;;;13.03;53.06;94914.00;5102297;28;19954;-73
2022/04/22 07:16:16;;;;;;;;;;;;;;;13.12;52.85;94906.31;5116511;28;19954;-73
2022/04/22 07:18:42;;;;;;;;;;;;;;;13.23;52.27;94893.88;5116555;28;19952;-73
2022/04/22 07:21:08;;;;;;;;;;;;;;;13.30;52.33;94894.41;5116580;28;20328;-73
2022/04/22 07:23:34;;;;;;;;;;;;;;;13.48;52.23;94901.69;5115222;28;20420;-73
2022/04/22 07:26:01;;;;;;;;;;;;;;;13.63;52.23;94902.59;5116330;28;19999;-74
2022/04/22 07:28:28;;;;;;;;;;;;;;;13.59;51.39;94883.97;5116214;28;20396;-73
2022/04/22 07:30:56;;;;;;;;;;;;;;;13.71;51.52;94891.50;5115768;28;20335;-74
2022/04/22 07:33:22;;;;;;;;;;;;;;;13.79;50.81;94888.25;5116356;28;20312;-73
2022/04/22 07:35:48;;;;;;;;;;;;;;;13.96;51.07;94886.03;5115499;28;19960;-74
2022/04/22 07:38:14;;;;;;;;;;;;;;;14.10;50.66;94893.28;5097513;28;20050;-74
2022/04/22 07:40:43;;;;;;;;;;;;;;;14.19;49.92;94873.97;5097679;28;19972;-74
2022/04/22 07:48:40;;;;;;;;;;;;;;;14.28;49.83;94886.50;5115797;28;19956;-74
2022/04/22 07:51:06;;;;;;;;;;;;;;;14.26;50.26;94901.81;5116520;28;19952;-74
2022/04/22 07:53:34;;;;;;;;;;;;;;;14.27;49.83;94896.28;5115189;28;19961;-73
2022/04/22 07:55:59;;;;;;;;;;;;;;;14.35;50.35;94908.06;5115414;28;20041;-74
2022/04/22 07:58:33;;;;;;;;;;;;;;;14.32;49.91;94901.50;5116029;28;19960;-74
2022/04/22 08:00:59;;;;;;;;;;;;;;;14.23;50.17;94897.88;5116817;28;19969;-74
2022/04/22 08:03:26;;;;;;;;;;;;;;;14.24;50.77;94919.75;5116288;28;20341;-74
2022/04/22 08:05:52;;;;;;;;;;;;;;;14.26;50.06;94907.91;5115743;28;19959;-74
2022/04/22 08:08:17;;;;;;;;;;;;;;;14.37;50.30;94906.72;5115778;28;20406;-74
2022/04/22 08:10:59;;;;;;;;;;;;;;;14.49;48.39;94900.25;5113296;28;20407;-73
2022/04/22 08:13:26;;;;;;;;;;;;;;;14.47;49.70;94921.66;5115463;28;19970;-73
2022/04/22 08:15:52;;;;;;;;;;;;;;;14.47;48.31;94924.31;5115688;28;19952;-73
2022/04/22 08:18:18;;;;;;;;;;;;;;;14.53;48.17;94920.53;5115380;28;19955;-73
2022/04/22 08:20:43;;;;;;;;;;;;;;;14.61;48.94;94935.00;5115280;28;20343;-75
2022/04/22 08:23:09;;;;;;;;;;;;;;;14.46;47.16;94924.56;5115123;28;19957;-74
2022/04/22 08:25:35;;;;;;;;;;;;;;;14.52;51.68;94963.81;5115329;28;19951;-73
2022/04/22 08:28:04;;;;;;;;;;;;;;;14.86;49.37;94933.13;5116376;28;19955;-73
2022/04/22 08:30:30;;;;;;;;;;;;;;;15.19;47.83;94919.00;5115013;28;20311;-73
2022/04/22 08:32:56;;;;;;;;;;;;;;;15.32;47.58;94922.00;5115164;28;20430;-73
2022/04/22 08:35:22;;;;;;;;;;;;;;;15.30;46.88;94921.50;5115740;28;20006;-73
2022/04/22 08:37:48;;;;;;;;;;;;;;;15.23;47.37;94922.66;5116255;28;19963;-72
2022/04/22 08:40:14;;;;;;;;;;;;;;;15.18;47.76;94914.81;5116028;28;19955;-73
2022/04/22 08:42:41;;;;;;;;;;;;;;;15.19;47.28;94921.63;5114857;28;20295;-73
2022/04/22 08:45:08;;;;;;;;;;;;;;;15.23;47.51;94913.94;5114913;28;19951;-73
2022/04/22 08:50:19;;;;;;;;;;;;;;;15.16;46.72;94905.56;5114238;28;20325;-73
2022/04/22 08:52:53;;;;;;;;;;;;;;;15.13;47.15;94901.66;5114508;28;20336;-73
2022/04/22 08:55:19;;;;;;;;;;;;;;;15.15;47.59;94910.06;5096740;28;19946;-72
2022/04/22 08:57:51;;;;;;;;;;;;;;;15.10;47.35;94910.16;5114564;28;20322;-73
2022/04/22 09:00:26;;;;;;;;;;;;;;;15.06;48.04;94913.66;5101299;28;19961;-73
2022/04/22 09:02:56;;;;;;;;;;;;;;;15.04;47.41;94910.50;5114784;28;19988;-73
2022/04/22 09:05:22;;;;;;;;;;;;;;;15.09;47.66;94908.56;5114707;28;20330;-73
2022/04/22 09:07:49;;;;;;;;;;;;;;;15.11;47.96;94903.00;5114451;28;20006;-73
2022/04/22 09:10:15;;;;;;;;;;;;;;;15.19;47.93;94900.50;5096144;28;20424;-73
2022/04/22 09:12:43;;;;;;;;;;;;;;;15.34;48.29;94896.09;5114354;28;19951;-73
2022/04/22 09:15:09;;;;;;;;;;;;;;;15.46;47.34;94895.69;5113907;28;19945;-73
2022/04/22 09:17:36;;;;;;;;;;;;;;;15.59;46.94;94876.44;5114102;28;19945;-72
2022/04/22 09:20:03;;;;;;;;;;;;;;;15.69;48.00;94891.38;5114486;28;19986;-73
2022/04/22 09:22:34;;;;;;;;;;;;;;;15.68;46.59;94877.34;5114295;28;19951;-73
2022/04/22 09:25:01;;;;;;;;;;;;;;;15.65;46.75;94883.22;5114616;28;20328;-72
2022/04/22 09:27:45;;;;;;;;;;;;;;;15.58;45.81;94877.50;5113852;28;19955;-73
2022/04/22 09:30:11;;;;;;;;;;;;;;;15.57;46.45;94876.72;5114696;28;19953;-73
2022/04/22 09:32:39;;;;;;;;;;;;;;;15.61;46.27;94869.03;5113627;28;20419;-73
2022/04/22 09:35:09;;;;;;;;;;;;;;;15.65;46.61;94879.81;5095609;28;19968;-72
2022/04/22 09:43:21;;;;;;;;;;;;;;;15.54;47.02;94873.88;5104936;28;19956;-72
2022/04/22 09:45:47;;;;;;;;;;;;;;;15.68;47.27;94873.94;5114740;28;20393;-73
2022/04/22 09:48:14;;;;;;;;;;;;;;;15.80;47.03;94869.00;5118208;28;19997;-73
2022/04/22 09:50:44;;;;;;;;;;;;;;;15.96;45.93;94864.28;5118724;28;19949;-73
2022/04/22 09:53:33;;;;;;;;;;;;;;;16.12;46.44;94875.34;5105196;28;19943;-73
2022/04/22 09:56:04;;;;;;;;;;;;;;;16.20;45.75;94867.53;5118210;28;19948;-73
2022/04/22 09:58:30;;;;;;;;;;;;;;;16.25;45.00;94866.66;5118188;28;19948;-73
2022/04/22 10:01:00;;;;;;;;;;;;;;;16.17;45.50;94877.94;5117609;28;19971;-72
2022/04/22 10:03:30;;;;;;;;;;;;;;;16.23;44.21;94864.31;5117705;28;20478;-72
2022/04/22 10:05:56;;;;;;;;;;;;;;;16.30;44.58;94852.56;5117975;28;20318;-73
2022/04/22 10:08:23;;;;;;;;;;;;;;;16.37;46.35;94868.81;5099941;28;20325;-72
2022/04/22 10:10:52;;;;;;;;;;;;;;;16.42;45.62;94869.53;5117797;28;19949;-73
2022/04/22 10:13:21;;;;;;;;;;;;;;;16.59;45.46;94868.16;5117800;28;19955;-73
2022/04/22 10:15:47;;;;;;;;;;;;;;;16.76;45.02;94864.91;5117869;28;20322;-72
2022/04/22 10:18:13;;;;;;;;;;;;;;;16.91;45.87;94861.97;5117757;28;19967;-73
2022/04/22 10:20:40;;;;;;;;;;;;;;;17.07;45.13;94856.34;5117497;28;19977;-73
2022/04/22 10:23:06;;;;;;;;;;;;;;;17.15;44.16;94853.78;5117824;28;19946;-73
2022/04/22 10:25:32;;;;;;;;;;;;;;;17.00;42.47;94851.47;5117582;28;19966;-73
2022/04/22 10:28:00;;;;;;;;;;;;;;;17.02;42.88;94854.59;5117561;28;19961;-74
2022/04/22 10:30:26;;;;;;;;;;;;;;;16.83;43.48;94863.44;5117289;28;20295;-74
2022/04/22 10:32:53;;;;;;;;;;;;;;;16.69;40.74;94849.41;5117445;28;19962;-73
2022/04/22 10:35:21;;;;;;;;;;;;;;;16.66;42.61;94881.78;5117590;28;19963;-74
2022/04/22 10:37:49;;;;;;;;;;;;;;;16.76;41.43;94884.22;5117463;28;19956;-74
2022/04/22 10:40:22;;;;;;;;;;;;;;;16.71;42.94;94896.75;5099172;28;19948;-74
2022/04/22 10:42:49;;;;;;;;;;;;;;;16.80;43.15;94905.59;5117490;28;20405;-74
2022/04/22 10:48:16;;;;;;;;;;;;;;;16.83;44.04;94910.31;5117552;28;19954;-74
2022/04/22 10:50:43;;;;;;;;;;;;;;;17.08;43.98;94906.38;5099286;28;19947;-74
2022/04/22 10:53:23;;;;;;;;;;;;;;;17.32;44.01;94892.88;5116779;28;19950;-74
2022/04/22 10:55:49;;;;;;;;;;;;;;;17.43;40.58;94872.25;5117622;28;19953;-74
2022/04/22 10:58:21;;;;;;;;;;;;;;;17.24;41.00;94886.44;5097903;28;19968;-74
2022/04/22 11:00:48;;;;;;;;;;;;;;;17.21;41.42;94891.53;5116919;28;19967;-74
2022/04/22 11:03:14;;;;;;;;;;;;;;;16.99;41.28;94874.53;5116473;28;19986;-74
2022/04/22 11:05:43;;;;;;;;;;;;;;;17.02;43.04;94897.75;5119144;28;20346;-74
2022/04/22 11:08:16;;;;;;;;;;;;;;;17.32;43.12;94886.81;5116626;28;19963;-74
2022/04/22 11:10:57;;;;;;;;;;;;;;;17.48;42.86;94890.69;5116853;28;20324;-75
2022/04/22 11:13:27;;;;;;;;;;;;;;;17.62;41.71;94886.13;5098830;28;19961;-75
2022/04/22 11:15:56;;;;;;;;;;;;;;;17.10;39.54;94864.50;5116456;28;19951;-75
2022/04/22 11:18:22;;;;;;;;;;;;;;;17.06;41.53;94895.28;5117075;28;19947;-74
2022/04/22 11:20:51;;;;;;;;;;;;;;;17.26;41.35;94891.44;5081894;28;19953;-74
2022/04/22 11:23:17;;;;;;;;;;;;;;;17.17;39.27;94869.38;5116569;28;19953;-75
2022/04/22 11:25:44;;;;;;;;;;;;;;;16.70;40.05;94874.03;5115873;28;19961;-75
2022/04/22 11:28:10;;;;;;;;;;;;;;;16.74;41.24;94878.44;5116718;28;19949;-75
2022/04/22 11:30:36;;;;;;;;;;;;;;;16.92;42.09;94897.94;5116069;28;20003;-75
2022/04/22 11:33:12;;;;;;;;;;;;;;;17.27;41.57;94884.28;5116666;28;20033;-75
2022/04/22 11:35:39;;;;;;;;;;;;;;;17.60;42.25;94883.00;5116392;28;19966;-75
2022/04/22 11:38:05;;;;;;;;;;;;;;;17.76;40.38;94883.41;5116133;28;20327;-75
2022/04/22 11:40:39;;;;;;;;;;;;;;;17.83;41.34;94878.50;5115897;28;19952;-75
2022/04/22 11:43:06;;;;;;;;;;;;;;;17.99;40.52;94873.59;5115876;28;19956;-75
2022/04/22 11:45:34;;;;;;;;;;;;;;;17.95;39.84;94866.56;5116016;28;20316;-74
2022/04/22 11:48:06;;;;;;;;;;;;;;;17.98;41.18;94877.34;5115696;28;19963;-74
2022/04/22 11:50:37;;;;;;;;;;;;;;;17.99;40.91;94870.94;5116049;28;19949;-74
2022/04/22 11:53:06;;;;;;;;;;;;;;;18.13;41.18;94867.44;5115428;28;19951;-75
2022/04/22 11:55:32;;;;;;;;;;;;;;;18.33;40.81;94872.22;5097385;28;19956;-75
2022/04/22 11:57:59;;;;;;;;;;;;;;;18.62;40.44;94869.03;5115649;28;19963;-75
2022/04/22 12:05:55;;;;;;;;;;;;;;;18.93;38.92;94859.47;5115647;28;20459;-74
2022/04/22 12:08:21;;;;;;;;;;;;;;;18.94;38.52;94861.84;5114983;28;19952;-75
2022/04/22 12:10:48;;;;;;;;;;;;;;;19.03;38.38;94867.94;5115894;28;19956;-74
2022/04/22 12:13:15;;;;;;;;;;;;;;;19.23;39.31;94863.09;5115454;28;19956;-74
2022/04/22 12:15:46;;;;;;;;;;;;;;;19.44;36.91;94855.31;5115490;28;19957;-75
2022/04/22 12:18:44;;;;;;;;;;;;;;;19.40;37.88;94854.34;5115171;28;19948;-75
2022/04/22 12:21:11;;;;;;;;;;;;;;;19.14;37.83;94852.47;5033150;28;19970;-75
2022/04/22 12:23:39;;;;;;;;;;;;;;;18.95;38.30;94863.38;5093004;28;20314;-76
2022/04/22 12:26:18;;;;;;;;;;;;;;;18.54;37.32;94847.78;5115407;28;19967;-75
2022/04/22 12:28:57;;;;;;;;;;;;;;;18.35;38.96;94864.75;5115335;28;20339;-75
2022/04/22 12:31:23;;;;;;;;;;;;;;;18.34;37.69;94859.75;5096791;28;19953;-77
2022/04/22 12:34:02;;;;;;;;;;;;;;;18.30;39.31;94864.09;5115360;28;20350;-75
2022/04/22 12:36:29;;;;;;;;;;;;;;;18.20;39.99;94867.78;5113917;28;19955;-75
2022/04/22 12:38:55;;;;;;;;;;;;;;;17.97;39.60;94865.16;5114873;28;19960;-74
2022/04/22 12:41:23;;;;;;;;;;;;;;;17.88;39.96;94866.22;5114784;28;20422;-75
2022/04/22 12:43:50;;;;;;;;;;;;;;;18.10;41.41;94860.88;5114962;28;19950;-77
2022/04/22 12:52:12;;;;;;;;;;;;;;;18.44;39.82;94852.28;5115448;28;19950;-74
2022/04/22 12:54:39;;;;;;;;;;;;;;;18.35;39.46;94848.03;5115140;28;19952;-75
2022/04/22 12:57:08;;;;;;;;;;;;;;;18.18;39.80;94848.72;5114618;28;19955;-75
2022/04/22 12:59:40;;;;;;;;;;;;;;;18.13;39.47;94852.31;5114380;28;19946;-75
2022/04/22 13:02:07;;;;;;;;;;;;;;;18.08;39.83;94849.78;5114210;28;19964;-75
2022/04/22 13:04:48;;;;;;;;;;;;;;;18.11;39.88;94845.75;5096029;28;20008;-75
2022/04/22 13:07:13;;;;;;;;;;;;;;;18.21;40.47;94848.91;5114754;28;19952;-75
2022/04/22 13:09:39;;;;;;;;;;;;;;;18.41;39.81;94842.25;5096485;28;19955;-74
2022/04/22 13:12:05;;;;;;;;;;;;;;;18.57;40.00;94834.69;5114172;28;20367;-76
2022/04/22 13:14:31;;;;;;;;;;;;;;;18.77;39.76;94846.63;5114484;28;19955;-76
2022/04/22 13:16:57;;;;;;;;;;;;;;;18.98;38.97;94841.53;5114250;28;19956;-76
2022/04/22 13:19:23;;;;;;;;;;;;;;;18.78;36.02;94842.88;5114065;28;20002;-75
2022/04/22 13:21:49;;;;;;;;;;;;;;;18.49;37.89;94835.44;5113531;28;19974;-75
2022/04/22 13:24:15;;;;;;;;;;;;;;;18.34;39.06;94844.59;5114169;28;20399;-75
2022/04/22 13:26:41;;;;;;;;;;;;;;;18.53;39.17;94843.56;5114420;28;19951;-75
2022/04/22 13:29:07;;;;;;;;;;;;;;;18.85;38.65;94835.22;5114244;28;20008;-75
2022/04/22 13:31:33;;;;;;;;;;;;;;;19.06;37.40;94818.72;5114137;28;20436;-75
2022/04/22 13:34:01;;;;;;;;;;;;;;;19.25;38.03;94821.06;5114239;28;20305;-75
2022/04/22 13:36:27;;;;;;;;;;;;;;;19.26;38.07;94825.28;5114132;28;20331;-75
2022/04/22 13:38:53;;;;;;;;;;;;;;;19.06;37.95;94826.69;5095963;28;19955;-75
2022/04/22 13:41:19;;;;;;;;;;;;;;;18.85;38.19;94834.47;5113580;28;19965;-75
2022/04/22 13:43:45;;;;;;;;;;;;;;;18.86;38.89;94836.03;5114427;28;19958;-75
2022/04/22 13:54:24;;;;;;;;;;;;;;;18.87;36.12;94824.31;5113838;28;19949;-75
2022/04/22 13:56:49;;;;;;;;;;;;;;;18.52;37.16;94832.19;5095828;28;20002;-75
2022/04/22 13:59:34;;;;;;;;;;;;;;;18.29;38.87;94838.63;5103870;28;19951;-75
2022/04/22 14:02:01;;;;;;;;;;;;;;;18.31;38.93;94839.91;5078808;28;19962;-76
2022/04/22 14:04:27;;;;;;;;;;;;;;;18.58;38.97;94835.47;5113645;28;19973;-75